Time;durP1;ratioP1;P1;durP2;ratioP2;P2;SDS_P1;SDS_P2;PMS_P1;PMS_P2;Temp;Humidity;BMP_temperature;BMP_pressure;BME280_temperature;BME280_humidity;BME280_pressure;Samples;Min_cycle;Max_cycle;Signal;HPM_P1;HPM_P2
2023/12/12 00:01:26;;;;;;;5.85;2.97;;;;;;;5.34;100.00;97633.31;6093419;19;19998;-71
2023/12/12 00:03:27;;;;;;;4.80;2.20;;;;;;;5.35;100.00;97637.66;6093938;19;20006;-71
2023/12/12 00:05:27;;;;;;;10.27;4.28;;;;;;;5.40;100.00;97635.78;6094152;19;20395;-71
2023/12/12 00:07:27;;;;;;;10.05;4.38;;;;;;;5.38;100.00;97641.63;6094346;19;20377;-71
2023/12/12 00:09:28;;;;;;;10.02;4.60;;;;;;;5.44;100.00;97639.38;6093124;19;20022;-71
2023/12/12 00:11:28;;;;;;;6.32;3.40;;;;;;;5.46;100.00;97637.88;6092055;19;20014;-71
2023/12/12 00:13:28;;;;;;;8.77;4.30;;;;;;;5.51;100.00;97643.03;6094195;19;20326;-71
2023/12/12 00:15:28;;;;;;;10.13;3.85;;;;;;;5.52;100.00;97647.34;6093717;19;20033;-72
2023/12/12 00:17:29;;;;;;;6.72;3.38;;;;;;;5.50;100.00;97646.16;6093431;19;20010;-72
2023/12/12 00:19:29;;;;;;;10.23;5.07;;;;;;;5.58;100.00;97647.84;6093230;19;20355;-72
2023/12/12 00:21:30;;;;;;;6.47;3.50;;;;;;;5.52;100.00;97644.63;6092929;19;20011;-72
2023/12/12 00:23:30;;;;;;;4.53;2.30;;;;;;;5.53;100.00;97648.16;6093990;19;20016;-72
2023/12/12 00:25:31;;;;;;;3.67;2.03;;;;;;;5.54;100.00;97649.72;6093990;19;20303;-72
2023/12/12 00:27:32;;;;;;;7.68;3.38;;;;;;;5.60;100.00;97653.78;6093816;19;20009;-71
2023/12/12 00:29:35;;;;;;;4.68;2.40;;;;;;;5.68;100.00;97660.19;6092467;19;20006;-71
2023/12/12 00:31:35;;;;;;;3.80;2.17;;;;;;;5.71;100.00;97656.69;6091940;19;20010;-72
2023/12/12 00:33:36;;;;;;;4.63;2.55;;;;;;;5.70;100.00;97664.13;6094333;19;20511;-72
2023/12/12 00:35:36;;;;;;;5.70;3.00;;;;;;;5.72;100.00;97666.53;6092402;19;20002;-71
2023/12/12 00:37:36;;;;;;;4.28;2.20;;;;;;;5.70;100.00;97657.84;6093920;19;20321;-72
2023/12/12 00:39:38;;;;;;;6.72;3.38;;;;;;;5.69;100.00;97668.03;6093048;19;20003;-72
2023/12/12 00:41:38;;;;;;;8.27;3.60;;;;;;;5.69;100.00;97659.00;6093496;19;20033;-72
2023/12/12 00:43:40;;;;;;;7.30;3.75;;;;;;;5.74;100.00;97673.25;6092607;19;20483;-71
2023/12/12 00:45:40;;;;;;;8.98;3.83;;;;;;;5.76;100.00;97664.63;6093073;19;20298;-71
2023/12/12 00:47:41;;;;;;;7.93;3.20;;;;;;;5.79;100.00;97655.66;6093035;19;20032;-72
2023/12/12 00:49:41;;;;;;;5.65;3.22;;;;;;;5.70;100.00;97655.91;6088869;19;20501;-72
2023/12/12 00:51:41;;;;;;;5.72;3.22;;;;;;;5.67;100.00;97653.09;6100795;19;20400;-72
2023/12/12 00:53:42;;;;;;;6.38;2.85;;;;;;;5.59;100.00;97658.47;6101453;19;20247;-72
2023/12/12 00:55:42;;;;;;;8.55;3.42;;;;;;;5.55;100.00;97654.09;6099770;19;20094;-72
2023/12/12 00:57:42;;;;;;;6.05;3.13;;;;;;;5.56;100.00;97639.22;6097610;19;20014;-72
2023/12/12 00:59:43;;;;;;;5.07;2.85;;;;;;;5.56;100.00;97640.00;6097325;19;20010;-72
2023/12/12 01:01:43;;;;;;;3.30;2.47;;;;;;;5.69;100.00;97640.59;6099785;19;20041;-71
2023/12/12 01:03:44;;;;;;;4.63;2.53;;;;;;;5.71;100.00;97634.72;6100711;19;20077;-72
2023/12/12 01:05:44;;;;;;;5.97;2.55;;;;;;;5.78;100.00;97643.09;6100109;19;20032;-72
2023/12/12 01:07:44;;;;;;;4.53;2.40;;;;;;;5.76;100.00;97637.19;6101041;19;20009;-71
2023/12/12 01:09:45;;;;;;;4.03;2.15;;;;;;;5.72;100.00;97644.59;6099070;19;20643;-72
2023/12/12 01:11:45;;;;;;;4.18;2.15;;;;;;;5.71;100.00;97637.47;6099780;19;20411;-71
2023/12/12 01:13:48;;;;;;;3.13;1.88;;;;;;;5.77;100.00;97641.50;6100448;19;20331;-72
2023/12/12 01:15:48;;;;;;;2.40;1.90;;;;;;;5.74;100.00;97642.25;6100135;19;20394;-72
2023/12/12 01:17:48;;;;;;;4.40;2.15;;;;;;;5.81;100.00;97648.66;6099575;19;20006;-72
2023/12/12 01:19:49;;;;;;;3.45;1.90;;;;;;;5.83;100.00;97662.00;6098865;19;20025;-72
2023/12/12 01:21:50;;;;;;;2.72;1.95;;;;;;;5.81;100.00;97656.91;6099662;19;20019;-72
2023/12/12 01:23:52;;;;;;;3.70;2.25;;;;;;;5.71;100.00;97663.00;6100175;19;20007;-72
2023/12/12 01:25:53;;;;;;;4.32;2.35;;;;;;;5.62;100.00;97654.19;6099395;19;20011;-71
2023/12/12 01:27:53;;;;;;;4.22;2.40;;;;;;;5.64;100.00;97657.38;6100357;19;20246;-71
2023/12/12 01:29:54;;;;;;;5.07;2.30;;;;;;;5.60;100.00;97651.81;6096828;19;20030;-72
2023/12/12 01:31:54;;;;;;;3.90;2.20;;;;;;;5.51;100.00;97661.44;6099364;19;20082;-72
2023/12/12 01:33:55;;;;;;;5.85;2.78;;;;;;;5.44;100.00;97653.09;6099242;19;20036;-72
2023/12/12 01:35:55;;;;;;;4.43;2.15;;;;;;;5.46;100.00;97654.31;6099819;19;19999;-71
2023/12/12 01:37:55;;;;;;;2.53;1.90;;;;;;;5.51;100.00;97659.50;6098723;19;20009;-72
2023/12/12 01:39:56;;;;;;;3.33;2.47;;;;;;;5.44;100.00;97656.63;6098448;19;20078;-72
2023/12/12 01:41:56;;;;;;;5.13;2.20;;;;;;;5.42;100.00;97649.91;6099907;19;20006;-72
2023/12/12 01:43:56;;;;;;;4.30;2.08;;;;;;;5.35;100.00;97656.84;6092465;19;20415;-71
2023/12/12 01:46:00;;;;;;;7.15;2.90;;;;;;;5.29;100.00;97650.06;6097886;19;20007;-72
2023/12/12 01:48:01;;;;;;;4.22;2.10;;;;;;;5.25;100.00;97651.16;6099057;19;20443;-72
2023/12/12 01:50:01;;;;;;;3.05;2.10;;;;;;;5.29;100.00;97665.72;6097253;19;20010;-72
2023/12/12 01:52:02;;;;;;;3.60;2.25;;;;;;;5.25;100.00;97662.94;6099171;19;20083;-72
2023/12/12 01:54:03;;;;;;;5.07;2.40;;;;;;;5.20;100.00;97668.69;6098654;19;20331;-72
2023/12/12 01:56:05;;;;;;;5.68;2.42;;;;;;;5.23;100.00;97667.19;6099515;19;20007;-72
2023/12/12 01:58:06;;;;;;;5.90;2.60;;;;;;;5.23;100.00;97668.00;6098651;19;20557;-71
2023/12/12 02:00:07;;;;;;;2.95;2.15;;;;;;;5.21;100.00;97677.72;6097719;19;20015;-72
2023/12/12 02:02:09;;;;;;;5.88;2.42;;;;;;;5.20;100.00;97674.19;6102925;19;20045;-72
2023/12/12 02:04:10;;;;;;;6.80;2.75;;;;;;;5.20;100.00;97668.69;6104226;19;20013;-72
2023/12/12 02:06:14;;;;;;;5.95;2.35;;;;;;;5.31;100.00;97677.16;6103999;19;20007;-71
2023/12/12 02:08:15;;;;;;;4.43;2.50;;;;;;;5.39;100.00;97675.34;6104321;19;20007;-72
2023/12/12 02:10:16;;;;;;;4.97;2.55;;;;;;;5.49;100.00;97678.28;6103276;19;20066;-72
2023/12/12 02:12:16;;;;;;;4.80;2.67;;;;;;;5.60;100.00;97675.72;6104026;19;20027;-72
2023/12/12 02:14:16;;;;;;;4.45;2.53;;;;;;;5.68;100.00;97673.91;6103321;19;20035;-72
2023/12/12 02:16:17;;;;;;;4.53;3.17;;;;;;;5.71;100.00;97670.41;6104138;19;20485;-72
2023/12/12 02:18:17;;;;;;;5.70;2.70;;;;;;;5.75;100.00;97677.56;6104218;19;20009;-71
2023/12/12 02:20:18;;;;;;;6.13;3.17;;;;;;;5.79;100.00;97674.88;6103898;19;20040;-72
2023/12/12 02:22:18;;;;;;;4.70;2.70;;;;;;;5.91;100.00;97675.53;6103159;19;20342;-71
2023/12/12 02:24:19;;;;;;;7.47;2.78;;;;;;;5.92;100.00;97670.81;6104389;19;20015;-72
2023/12/12 02:26:19;;;;;;;7.07;3.15;;;;;;;5.93;100.00;97657.88;6105603;19;20028;-72
2023/12/12 02:28:20;;;;;;;7.63;2.95;;;;;;;5.88;100.00;97661.72;6104700;19;20003;-71
2023/12/12 02:30:21;;;;;;;6.72;2.83;;;;;;;5.84;100.00;97655.34;6103840;19;20106;-72
2023/12/12 02:32:21;;;;;;;3.38;2.42;;;;;;;5.84;100.00;97669.09;6105601;19;20033;-72
2023/12/12 02:34:21;;;;;;;5.78;2.70;;;;;;;5.84;100.00;97672.63;6104152;19;20234;-72
2023/12/12 02:36:22;;;;;;;5.45;2.70;;;;;;;5.86;100.00;97662.06;6105101;19;20002;-72
2023/12/12 02:38:22;;;;;;;5.25;2.75;;;;;;;5.85;100.00;97663.22;6105685;19;20010;-72
2023/12/12 02:40:22;;;;;;;4.57;2.85;;;;;;;5.84;100.00;97660.84;6104228;19;20405;-72
2023/12/12 02:42:23;;;;;;;4.22;2.33;;;;;;;5.83;100.00;97664.75;6103989;19;20325;-71
2023/12/12 02:44:23;;;;;;;4.07;2.42;;;;;;;5.83;100.00;97665.56;6103966;19;20006;-72
2023/12/12 02:46:23;;;;;;;5.90;2.33;;;;;;;5.86;100.00;97667.56;6104741;19;20031;-72
2023/12/12 02:48:26;;;;;;;4.57;2.53;;;;;;;5.88;100.00;97662.50;6104332;19;20006;-71
2023/12/12 02:50:26;;;;;;;4.75;2.70;;;;;;;5.85;100.00;97657.72;6103412;19;20025;-72
2023/12/12 02:52:27;;;;;;;5.85;2.72;;;;;;;5.87;100.00;97660.91;6104963;19;20007;-72
2023/12/12 02:54:27;;;;;;;4.93;2.30;;;;;;;5.92;100.00;97670.81;6103864;19;20023;-72
2023/12/12 02:56:32;;;;;;;6.22;2.70;;;;;;;5.91;100.00;97663.75;6104036;19;20013;-72
2023/12/12 02:58:32;;;;;;;3.72;2.20;;;;;;;5.94;100.00;97664.97;6103665;19;20408;-72
2023/12/12 03:00:33;;;;;;;6.88;2.50;;;;;;;5.96;100.00;97657.97;6103433;19;20320;-71
2023/12/12 03:02:33;;;;;;;4.43;2.45;;;;;;;5.92;100.00;97659.84;6104124;19;20033;-71
2023/12/12 03:04:33;;;;;;;5.20;2.70;;;;;;;5.81;100.00;97656.91;6103797;19;20070;-72
2023/12/12 03:06:34;;;;;;;3.70;2.30;;;;;;;5.80;100.00;97652.56;6103517;19;20014;-72
2023/12/12 03:08:34;;;;;;;5.88;2.33;;;;;;;5.70;100.00;97657.84;6104781;19;20597;-72
2023/12/12 03:10:34;;;;;;;9.13;2.78;;;;;;;5.60;100.00;97654.56;6101945;19;20062;-72
2023/12/12 03:12:35;;;;;;;3.30;2.22;;;;;;;5.51;100.00;97651.25;6102588;19;20090;-71
2023/12/12 03:14:37;;;;;;;4.10;3.00;;;;;;;5.40;100.00;97644.81;6103301;19;20033;-72
2023/12/12 03:16:37;;;;;;;4.32;2.30;;;;;;;5.29;100.00;97644.59;6103882;19;20367;-72
2023/12/12 03:18:37;;;;;;;4.57;2.30;;;;;;;5.24;100.00;97638.63;6103965;19;20035;-72
2023/12/12 03:20:38;;;;;;;3.95;2.42;;;;;;;5.22;100.00;97641.72;6102335;19;20366;-71
2023/12/12 03:22:38;;;;;;;7.20;2.40;;;;;;;5.26;100.00;97642.56;6103913;19;20523;-72
2023/12/12 03:24:38;;;;;;;3.40;2.30;;;;;;;5.22;100.00;97638.19;6102134;19;20006;-71
2023/12/12 03:26:39;;;;;;;4.68;2.40;;;;;;;5.25;100.00;97642.94;6103721;19;20434;-72
2023/12/12 03:28:39;;;;;;;6.07;3.03;;;;;;;5.25;100.00;97641.00;6104131;19;20006;-71
2023/12/12 03:30:39;;;;;;;6.25;2.85;;;;;;;5.30;100.00;97635.22;6102879;19;20303;-72
2023/12/12 03:32:40;;;;;;;4.15;2.13;;;;;;;5.32;100.00;97648.56;6102075;19;20357;-71
2023/12/12 03:34:40;;;;;;;4.28;2.05;;;;;;;5.24;100.00;97644.91;6103403;19;20502;-72
2023/12/12 03:36:44;;;;;;;4.88;2.08;;;;;;;5.30;100.00;97648.16;6103651;19;20341;-72
2023/12/12 03:38:44;;;;;;;5.47;2.30;;;;;;;5.26;100.00;97648.06;6104106;19;20431;-72
2023/12/12 03:40:45;;;;;;;4.22;2.38;;;;;;;5.27;100.00;97662.56;6101712;19;20007;-72
2023/12/12 03:42:45;;;;;;;3.72;2.20;;;;;;;5.26;100.00;97659.03;6103302;19;20013;-72
2023/12/12 03:44:45;;;;;;;6.13;2.65;;;;;;;5.22;100.00;97657.41;6102267;19;20007;-72
2023/12/12 03:46:46;;;;;;;7.10;2.95;;;;;;;5.22;100.00;97652.69;6102620;19;19998;-72
2023/12/12 03:48:46;;;;;;;5.70;2.30;;;;;;;5.26;100.00;97655.50;6103412;19;20017;-72
2023/12/12 03:50:49;;;;;;;6.32;2.28;;;;;;;5.28;100.00;97647.69;6089831;19;20013;-72
2023/12/12 03:52:49;;;;;;;8.80;3.45;;;;;;;5.26;100.00;97659.03;6102155;19;20078;-72
2023/12/12 03:54:50;;;;;;;7.88;2.78;;;;;;;5.17;100.00;97660.41;6101949;19;20006;-71
2023/12/12 03:56:51;;;;;;;6.25;2.58;;;;;;;5.12;100.00;97653.25;6102745;19;20454;-72
2023/12/12 03:58:51;;;;;;;7.45;2.28;;;;;;;5.07;100.00;97643.41;6100695;19;20363;-71
2023/12/12 04:00:51;;;;;;;5.00;2.05;;;;;;;5.07;100.00;97650.84;6100732;19;20003;-72
2023/12/12 04:02:52;;;;;;;4.95;2.35;;;;;;;5.14;100.00;97650.19;6103592;19;20106;-72
2023/12/12 04:04:52;;;;;;;4.97;2.10;;;;;;;5.13;100.00;97654.88;6101939;19;20030;-71
2023/12/12 04:06:52;;;;;;;4.30;1.98;;;;;;;5.13;100.00;97665.03;6103333;19;20007;-72
2023/12/12 04:08:53;;;;;;;4.47;2.45;;;;;;;5.10;100.00;97660.28;6099269;19;20400;-72
2023/12/12 04:10:53;;;;;;;3.83;2.30;;;;;;;5.04;100.00;97654.28;6101760;19;20003;-72
2023/12/12 04:12:53;;;;;;;7.35;2.38;;;;;;;5.11;100.00;97664.59;6101486;19;20017;-72
2023/12/12 04:14:54;;;;;;;7.13;2.25;;;;;;;5.12;100.00;97669.72;6103053;19;20003;-71
2023/12/12 04:16:55;;;;;;;3.65;2.17;;;;;;;5.09;100.00;97667.72;6100820;19;20017;-72
2023/12/12 04:18:55;;;;;;;3.08;1.75;;;;;;;5.03;100.00;97658.97;6099207;19;20009;-72
2023/12/12 04:20:55;;;;;;;4.57;1.98;;;;;;;4.98;100.00;97661.22;6099504;19;20031;-72
2023/12/12 04:22:56;;;;;;;4.15;1.63;;;;;;;4.92;100.00;97671.69;6101113;19;20006;-72
2023/12/12 04:24:56;;;;;;;9.20;2.25;;;;;;;4.89;100.00;97660.66;6099960;19;20358;-71
2023/12/12 04:26:57;;;;;;;6.32;2.30;;;;;;;4.89;100.00;97661.44;6100746;19;20025;-72
2023/12/12 04:28:57;;;;;;;5.45;2.10;;;;;;;4.97;100.00;97665.13;6101053;19;20015;-72
2023/12/12 04:30:57;;;;;;;4.55;1.92;;;;;;;5.04;100.00;97665.25;6101321;19;20014;-72
2023/12/12 04:32:58;;;;;;;4.80;1.75;;;;;;;5.04;100.00;97666.03;6101010;19;20398;-72
2023/12/12 04:35:01;;;;;;;6.15;2.03;;;;;;;5.03;100.00;97669.94;6101348;19;20558;-72
2023/12/12 04:37:01;;;;;;;6.53;1.90;;;;;;;5.05;100.00;97669.59;6101059;19;20007;-72
2023/12/12 04:39:01;;;;;;;5.60;1.73;;;;;;;5.00;100.00;97664.41;6101326;19;20035;-71
2023/12/12 04:41:05;;;;;;;4.05;2.10;;;;;;;4.98;100.00;97669.44;6100335;19;20012;-72
2023/12/12 04:43:05;;;;;;;8.98;2.55;;;;;;;4.99;100.00;97666.34;6100465;19;20062;-72
2023/12/12 04:45:06;;;;;;;5.13;2.55;;;;;;;5.01;100.00;97666.78;6099477;19;20015;-72
2023/12/12 04:47:06;;;;;;;4.13;2.10;;;;;;;5.01;100.00;97671.47;6099968;19;20006;-72
2023/12/12 04:49:07;;;;;;;5.10;2.00;;;;;;;5.05;100.00;97670.41;6100593;19;20019;-71
2023/12/12 04:51:07;;;;;;;2.88;1.63;;;;;;;5.11;100.00;97673.63;6086803;19;20015;-72
2023/12/12 04:53:07;;;;;;;7.78;1.85;;;;;;;5.15;100.00;97671.75;6085984;19;20175;-71
2023/12/12 04:55:08;;;;;;;6.00;2.10;;;;;;;5.24;100.00;97677.00;6086285;19;20007;-72
2023/12/12 04:57:08;;;;;;;3.35;1.80;;;;;;;5.27;100.00;97681.75;6087067;19;20025;-71
2023/12/12 04:59:09;;;;;;;7.25;2.10;;;;;;;5.26;100.00;97678.22;6085378;19;20293;-72
2023/12/12 05:01:09;;;;;;;5.97;1.70;;;;;;;5.31;100.00;97680.69;6084004;19;20461;-72
2023/12/12 05:03:09;;;;;;;8.45;1.73;;;;;;;5.35;100.00;97680.75;6086971;19;20494;-71
2023/12/12 05:05:13;;;;;;;7.70;2.42;;;;;;;5.43;100.00;97678.94;6086311;19;20007;-71
2023/12/12 05:07:15;;;;;;;7.85;1.80;;;;;;;5.43;100.00;97676.97;6086452;19;20537;-72
2023/12/12 05:09:17;;;;;;;5.18;1.80;;;;;;;5.40;100.00;97669.50;6085162;19;20241;-72
2023/12/12 05:11:17;;;;;;;7.15;2.10;;;;;;;5.47;100.00;97675.13;6086058;19;20010;-71
2023/12/12 05:13:18;;;;;;;5.18;1.50;;;;;;;5.49;100.00;97677.50;6087526;19;19998;-71
2023/12/12 05:15:18;;;;;;;6.97;1.63;;;;;;;5.51;100.00;97675.97;6083477;19;20019;-72
2023/12/12 05:17:18;;;;;;;7.13;2.35;;;;;;;5.51;100.00;97669.69;6085157;19;20026;-72
2023/12/12 05:19:19;;;;;;;6.55;2.63;;;;;;;5.49;100.00;97681.03;6085200;19;20007;-71
2023/12/12 05:21:21;;;;;;;7.95;2.03;;;;;;;5.46;100.00;97678.19;6084069;19;20006;-72
2023/12/12 05:23:21;;;;;;;;;;;;;;;5.50;100.00;97679.88;6086129;19;20082;-72
2023/12/12 05:25:22;;;;;;;3.85;2.20;;;;;;;5.50;100.00;97684.56;6085274;19;20279;-72
2023/12/12 05:27:22;;;;;;;10.15;2.17;;;;;;;5.47;100.00;97683.34;6086325;19;21021;-71
2023/12/12 05:29:22;;;;;;;3.88;1.70;;;;;;;5.49;100.00;97689.25;6084238;19;20014;-72
2023/12/12 05:31:24;;;;;;;3.75;1.90;;;;;;;5.52;100.00;97685.78;6086528;19;20006;-71
2023/12/12 05:33:24;;;;;;;2.55;1.73;;;;;;;5.58;100.00;97686.28;6086107;19;20594;-72
2023/12/12 05:35:24;;;;;;;3.95;2.20;;;;;;;5.56;100.00;97683.91;6082034;19;20642;-72
2023/12/12 05:37:25;;;;;;;8.65;2.20;;;;;;;5.55;100.00;97679.56;6090564;19;20041;-71
2023/12/12 05:39:25;;;;;;;9.90;3.25;;;;;;;5.57;100.00;97679.22;6090293;19;20343;-72
2023/12/12 05:41:25;;;;;;;5.53;2.08;;;;;;;5.59;100.00;97674.94;6090462;19;20533;-72
2023/12/12 05:43:26;;;;;;;4.15;2.00;;;;;;;5.60;100.00;97675.72;6090130;19;20102;-72
2023/12/12 05:45:26;;;;;;;2.38;1.40;;;;;;;5.59;100.00;97680.41;6090558;19;20070;-72
2023/12/12 05:47:27;;;;;;;3.28;1.70;;;;;;;5.57;100.00;97681.94;6090674;19;20010;-71
2023/12/12 05:49:27;;;;;;;2.85;1.70;;;;;;;5.63;100.00;97673.06;6088614;19;20934;-71
2023/12/12 05:51:27;;;;;;;7.78;2.00;;;;;;;5.64;100.00;97677.38;6103327;19;20454;-71
2023/12/12 05:53:28;;;;;;;4.25;1.90;;;;;;;5.61;100.00;97678.09;6105340;19;20007;-71
2023/12/12 05:55:28;;;;;;;5.78;2.20;;;;;;;5.70;100.00;97674.31;6103705;19;20007;-72
2023/12/12 05:57:28;;;;;;;8.10;1.77;;;;;;;5.66;100.00;97674.28;6104961;19;20017;-72
2023/12/12 05:59:29;;;;;;;4.65;1.92;;;;;;;5.68;100.00;97688.41;6102855;19;20359;-72
2023/12/12 06:01:29;;;;;;;5.93;1.80;;;;;;;5.64;100.00;97682.09;6103951;19;20297;-71
2023/12/12 06:03:31;;;;;;;5.25;2.08;;;;;;;5.59;100.00;97685.91;6049310;19;20358;-72
2023/12/12 06:05:31;;;;;;;4.85;1.85;;;;;;;5.55;100.00;97676.84;6102783;19;20274;-72
2023/12/12 06:07:32;;;;;;;7.80;2.35;;;;;;;5.59;100.00;97685.13;6103999;19;20007;-71
2023/12/12 06:09:32;;;;;;;3.85;2.00;;;;;;;5.54;100.00;97677.16;6102789;19;20558;-71
2023/12/12 06:11:32;;;;;;;3.75;1.80;;;;;;;5.57;100.00;97684.69;6104133;19;20303;-72
2023/12/12 06:13:33;;;;;;;5.15;1.95;;;;;;;5.53;100.00;97676.38;6104001;19;20033;-72
2023/12/12 06:15:33;;;;;;;4.00;1.95;;;;;;;5.48;100.00;97679.44;6104031;19;20014;-71
2023/12/12 06:17:35;;;;;;;5.88;1.80;;;;;;;5.46;100.00;97673.53;6104272;19;20336;-71
2023/12/12 06:19:35;;;;;;;5.43;1.90;;;;;;;5.45;100.00;97671.91;6103207;19;20070;-71
2023/12/12 06:21:35;;;;;;;3.78;1.95;;;;;;;5.44;100.00;97672.28;6104078;19;20023;-72
2023/12/12 06:23:36;;;;;;;6.18;2.15;;;;;;;5.40;100.00;97669.50;6104183;19;20030;-72
2023/12/12 06:25:36;;;;;;;7.43;2.30;;;;;;;5.36;100.00;97672.16;6104297;19;20010;-71
2023/12/12 06:27:37;;;;;;;6.65;2.70;;;;;;;5.34;100.00;97674.47;6102301;19;20060;-72
2023/12/12 06:29:37;;;;;;;7.32;2.75;;;;;;;5.30;100.00;97676.38;6103978;19;20316;-71
2023/12/12 06:31:38;;;;;;;7.05;2.72;;;;;;;5.28;100.00;97678.66;6102991;19;20015;-71
2023/12/12 06:33:39;;;;;;;9.88;2.60;;;;;;;5.32;100.00;97679.53;6103862;19;20247;-71
2023/12/12 06:35:39;;;;;;;6.90;2.90;;;;;;;5.32;100.00;97673.25;6102860;19;20027;-71
2023/12/12 06:37:39;;;;;;;10.38;3.13;;;;;;;5.31;100.00;97671.66;6100063;19;20002;-72
2023/12/12 06:39:40;;;;;;;7.72;2.28;;;;;;;5.30;100.00;97673.63;6102936;19;20568;-72
2023/12/12 06:41:40;;;;;;;5.43;2.55;;;;;;;5.26;100.00;97675.50;6101256;19;20038;-71
2023/12/12 06:43:42;;;;;;;7.97;2.90;;;;;;;5.29;100.00;97676.69;6100152;19;20389;-71
2023/12/12 06:45:43;;;;;;;8.13;2.13;;;;;;;5.29;100.00;97676.69;6098221;19;20549;-72
2023/12/12 06:47:43;;;;;;;9.25;2.83;;;;;;;5.27;100.00;97679.03;6098263;19;20062;-72
2023/12/12 06:49:43;;;;;;;7.75;2.85;;;;;;;5.27;100.00;97681.75;6100947;19;20003;-72
2023/12/12 06:51:44;;;;;;;10.55;2.78;;;;;;;5.28;100.00;97686.09;6103121;19;20022;-72
2023/12/12 06:53:44;;;;;;;5.47;2.33;;;;;;;5.27;100.00;97684.50;6098947;19;20320;-71
2023/12/12 06:55:46;;;;;;;7.32;2.25;;;;;;;5.20;100.00;97673.41;6100172;19;20494;-71
2023/12/12 06:57:46;;;;;;;4.97;2.13;;;;;;;5.17;100.00;97669.44;6100645;19;20025;-72
2023/12/12 06:59:46;;;;;;;3.75;2.30;;;;;;;5.14;100.00;97669.38;6098533;19;20090;-72
2023/12/12 07:01:47;;;;;;;5.82;2.10;;;;;;;5.09;100.00;97673.19;6099776;19;20002;-71
2023/12/12 07:03:47;;;;;;;5.65;2.30;;;;;;;5.07;100.00;97679.03;6102580;19;20010;-72
2023/12/12 07:05:52;;;;;;;6.93;1.98;;;;;;;5.08;100.00;97674.34;6102554;19;20306;-72
2023/12/12 07:07:53;;;;;;;8.20;2.40;;;;;;;5.12;100.00;97671.66;6101777;19;20058;-71
2023/12/12 07:09:53;;;;;;;9.18;2.83;;;;;;;5.12;100.00;97675.19;6100745;19;20014;-72
2023/12/12 07:11:54;;;;;;;5.80;2.30;;;;;;;5.17;100.00;97674.13;6099246;19;20296;-71
2023/12/12 07:13:55;;;;;;;4.85;2.08;;;;;;;5.14;100.00;97678.41;6101141;19;20039;-72
2023/12/12 07:15:55;;;;;;;5.88;2.13;;;;;;;5.13;100.00;97670.50;6101615;19;20013;-72
2023/12/12 07:17:56;;;;;;;5.75;1.92;;;;;;;5.16;100.00;97670.59;6099989;19;20451;-72
2023/12/12 07:19:57;;;;;;;8.60;2.60;;;;;;;5.16;100.00;97678.03;6101037;19;20018;-72
2023/12/12 07:21:57;;;;;;;9.15;2.47;;;;;;;5.19;100.00;97689.06;6100309;19;20013;-71
2023/12/12 07:23:58;;;;;;;4.60;2.50;;;;;;;5.20;100.00;97684.38;6103129;19;20409;-72
2023/12/12 07:25:59;;;;;;;5.90;2.35;;;;;;;5.18;100.00;97687.47;6102889;19;20312;-72
2023/12/12 07:28:00;;;;;;;4.78;2.00;;;;;;;5.16;100.00;97684.31;6103038;19;20383;-72
2023/12/12 07:30:00;;;;;;;3.55;2.00;;;;;;;5.17;100.00;97687.84;6102512;19;20383;-72
2023/12/12 07:32:01;;;;;;;7.93;2.30;;;;;;;5.15;100.00;97692.91;6102943;19;20518;-72
2023/12/12 07:34:01;;;;;;;4.95;2.35;;;;;;;5.11;100.00;97687.31;6102520;19;20021;-72
2023/12/12 07:36:02;;;;;;;5.47;2.10;;;;;;;5.12;100.00;97679.88;6102234;19;20469;-72
2023/12/12 07:38:02;;;;;;;5.13;2.45;;;;;;;5.08;100.00;97674.34;6103319;19;20013;-72
2023/12/12 07:40:04;;;;;;;5.05;2.08;;;;;;;5.08;100.00;97675.16;6101389;19;20002;-72
2023/12/12 07:42:04;;;;;;;2.60;2.00;;;;;;;5.11;100.00;97668.13;6102527;19;19999;-72
2023/12/12 07:44:05;;;;;;;4.68;2.10;;;;;;;5.14;100.00;97664.69;6102822;19;20016;-72
2023/12/12 07:46:05;;;;;;;6.72;2.00;;;;;;;5.20;100.00;97671.44;6102409;19;20003;-72
2023/12/12 07:48:06;;;;;;;8.02;2.40;;;;;;;5.23;100.00;97667.19;6101390;19;20234;-72
2023/12/12 07:50:08;;;;;;;5.13;1.77;;;;;;;5.25;100.00;97673.91;6101895;19;20031;-72
2023/12/12 07:52:08;;;;;;;6.85;2.42;;;;;;;5.26;100.00;97672.75;6102429;19;20006;-72
2023/12/12 07:54:09;;;;;;;4.55;1.70;;;;;;;5.26;100.00;97674.69;6103012;19;20033;-72
2023/12/12 07:56:10;;;;;;;5.40;2.20;;;;;;;5.27;100.00;97668.06;6101264;19;20007;-71
2023/12/12 07:58:10;;;;;;;6.30;2.10;;;;;;;5.30;100.00;97681.06;6102166;19;20102;-72
2023/12/12 08:00:12;;;;;;;9.95;2.35;;;;;;;5.29;100.00;97680.25;6099861;19;20114;-72
2023/12/12 08:02:12;;;;;;;5.30;1.63;;;;;;;5.32;100.00;97679.53;6102130;19;20035;-72
2023/12/12 08:04:13;;;;;;;4.25;1.67;;;;;;;5.26;100.00;97683.72;6103065;19;20003;-72
2023/12/12 08:06:13;;;;;;;4.53;1.80;;;;;;;5.30;100.00;97681.06;6102238;19;20010;-71
2023/12/12 08:08:13;;;;;;;6.70;1.80;;;;;;;5.29;100.00;97693.94;6102344;19;20055;-71
2023/12/12 08:10:14;;;;;;;6.00;2.67;;;;;;;5.30;100.00;97690.06;6099895;19;20527;-72
2023/12/12 08:12:16;;;;;;;5.07;1.75;;;;;;;5.32;100.00;97689.72;6102559;19;20082;-71
2023/12/12 08:14:16;;;;;;;5.50;1.88;;;;;;;5.27;100.00;97684.50;6101983;19;20014;-71
2023/12/12 08:16:17;;;;;;;5.63;2.03;;;;;;;5.28;100.00;97681.41;6100838;19;20517;-72
2023/12/12 08:18:17;;;;;;;6.60;1.98;;;;;;;5.25;100.00;97673.91;6102739;19;20052;-72
2023/12/12 08:20:18;;;;;;;4.53;1.90;;;;;;;5.26;100.00;97675.50;6100442;19;20006;-72
2023/12/12 08:22:18;;;;;;;7.15;2.00;;;;;;;5.27;100.00;97681.75;6100937;19;20352;-71
2023/12/12 08:24:19;;;;;;;10.60;2.20;;;;;;;5.23;100.00;97669.94;6101784;19;20522;-71
2023/12/12 08:26:19;;;;;;;6.80;2.35;;;;;;;5.24;100.00;97679.75;6101220;19;20003;-72
2023/12/12 08:28:19;;;;;;;5.57;2.10;;;;;;;5.25;100.00;97673.91;6102171;19;20010;-72
2023/12/12 08:30:20;;;;;;;5.38;2.13;;;;;;;5.22;100.00;97676.59;6101217;19;20072;-72
2023/12/12 08:32:20;;;;;;;8.57;1.80;;;;;;;5.18;100.00;97671.03;6101359;19;20014;-72
2023/12/12 08:34:20;;;;;;;7.72;1.92;;;;;;;5.18;100.00;97672.97;6101239;19;20041;-71
2023/12/12 08:36:21;;;;;;;7.75;2.55;;;;;;;5.18;100.00;97675.72;6102302;19;20090;-71
2023/12/12 08:38:21;;;;;;;3.63;1.65;;;;;;;5.13;100.00;97665.03;6102233;19;20014;-72
2023/12/12 08:40:21;;;;;;;5.07;1.85;;;;;;;5.15;100.00;97670.97;6100497;19;20006;-72
2023/12/12 08:42:22;;;;;;;4.85;2.97;;;;;;;5.14;100.00;97672.91;6101650;19;20013;-72
2023/12/12 08:44:23;;;;;;;6.43;2.10;;;;;;;5.19;100.00;97669.06;6101133;19;20007;-72
2023/12/12 08:46:26;;;;;;;6.68;2.08;;;;;;;5.15;100.00;97673.69;6102013;19;20095;-71
2023/12/12 08:48:27;;;;;;;7.65;2.30;;;;;;;5.13;100.00;97660.38;6101297;19;20014;-71
2023/12/12 08:50:27;;;;;;;4.13;1.90;;;;;;;5.13;100.00;97663.09;6090053;19;20021;-71
2023/12/12 08:52:27;;;;;;;9.05;2.05;;;;;;;5.16;100.00;97665.13;6101875;19;20473;-72
2023/12/12 08:54:28;;;;;;;9.25;3.00;;;;;;;5.16;100.00;97656.09;6100525;19;20345;-72
2023/12/12 08:56:28;;;;;;;7.55;2.25;;;;;;;5.15;100.00;97658.03;6100148;19;19998;-72
2023/12/12 08:58:28;;;;;;;6.97;2.65;;;;;;;5.18;100.00;97651.81;6100636;19;20010;-71
2023/12/12 09:00:29;;;;;;;6.43;2.90;;;;;;;5.16;100.00;97661.56;6098513;19;20010;-71
2023/12/12 09:02:29;;;;;;;4.70;2.30;;;;;;;5.15;100.00;97652.56;6101095;19;20011;-72
2023/12/12 09:04:32;;;;;;;6.32;2.40;;;;;;;5.17;100.00;97654.94;6100159;19;20010;-72
2023/12/12 09:06:32;;;;;;;9.00;2.50;;;;;;;5.18;100.00;97662.00;6101635;19;20006;-72
2023/12/12 09:08:32;;;;;;;10.70;3.05;;;;;;;5.18;100.00;97659.25;6097420;19;20320;-72
2023/12/12 09:10:33;;;;;;;5.13;2.10;;;;;;;5.21;100.00;97655.78;6098507;19;20007;-72
2023/12/12 09:12:34;;;;;;;7.78;2.75;;;;;;;5.24;100.00;97660.56;6100583;19;20427;-72
2023/12/12 09:14:34;;;;;;;6.68;2.80;;;;;;;5.30;100.00;97659.91;6099694;19;20222;-72
2023/12/12 09:16:35;;;;;;;6.50;2.13;;;;;;;5.36;100.00;97654.91;6099885;19;20459;-72
2023/12/12 09:18:37;;;;;;;6.70;2.45;;;;;;;5.42;100.00;97653.44;6098354;19;20029;-72
2023/12/12 09:20:37;;;;;;;7.55;2.30;;;;;;;5.46;100.00;97654.31;6099190;19;20417;-71
2023/12/12 09:22:37;;;;;;;12.68;2.67;;;;;;;5.51;100.00;97651.25;6101096;19;20330;-72
2023/12/12 09:24:38;;;;;;;4.55;1.90;;;;;;;5.55;100.00;97648.59;6099964;19;20014;-72
2023/12/12 09:26:38;;;;;;;6.68;2.03;;;;;;;5.58;100.00;97650.59;6100234;19;20018;-72
2023/12/12 09:28:42;;;;;;;4.80;2.00;;;;;;;5.65;100.00;97645.25;6099356;19;20038;-72